sensor_id;sensor_type;location;lat;lon;timestamp;temperature;humidity
41533;DHT22;27262;-35.248;149.138;2023-08-31T00:02:10;19.40;63.10
41533;DHT22;27262;-35.248;149.138;2023-08-31T00:04:40;19.40;62.90
41533;DHT22;27262;-35.248;149.138;2023-08-31T00:07:10;19.40;63.00
41533;DHT22;27262;-35.248;149.138;2023-08-31T00:09:41;19.50;62.90
41533;DHT22;27262;-35.248;149.138;2023-08-31T00:12:11;19.50;62.90
41533;DHT22;27262;-35.248;149.138;2023-08-31T00:14:41;19.50;62.90
41533;DHT22;27262;-35.248;149.138;2023-08-31T00:17:11;19.50;62.70
41533;DHT22;27262;-35.248;149.138;2023-08-31T00:19:43;19.50;62.90
41533;DHT22;27262;-35.248;149.138;2023-08-31T00:22:13;19.60;62.90
41533;DHT22;27262;-35.248;149.138;2023-08-31T00:24:43;19.60;62.70
41533;DHT22;27262;-35.248;149.138;2023-08-31T00:27:13;19.60;62.70
41533;DHT22;27262;-35.248;149.138;2023-08-31T00:29:44;19.60;62.60
41533;DHT22;27262;-35.248;149.138;2023-08-31T00:32:18;19.60;62.60
41533;DHT22;27262;-35.248;149.138;2023-08-31T00:34:51;19.60;62.80
41533;DHT22;27262;-35.248;149.138;2023-08-31T00:37:22;19.70;62.70
41533;DHT22;27262;-35.248;149.138;2023-08-31T00:39:52;19.70;62.60
41533;DHT22;27262;-35.248;149.138;2023-08-31T00:42:24;19.70;62.70
41533;DHT22;27262;-35.248;149.138;2023-08-31T00:44:55;19.70;62.50
41533;DHT22;27262;-35.248;149.138;2023-08-31T00:47:26;19.70;62.50
41533;DHT22;27262;-35.248;149.138;2023-08-31T00:49:56;19.70;62.40
41533;DHT22;27262;-35.248;149.138;2023-08-31T00:52:27;19.70;62.40
41533;DHT22;27262;-35.248;149.138;2023-08-31T00:54:58;19.70;62.40
41533;DHT22;27262;-35.248;149.138;2023-08-31T00:57:29;19.70;62.40
41533;DHT22;27262;-35.248;149.138;2023-08-31T01:00:00;19.70;62.30
41533;DHT22;27262;-35.248;149.138;2023-08-31T01:02:59;19.80;62.50
41533;DHT22;27262;-35.248;149.138;2023-08-31T01:05:56;19.80;62.20
41533;DHT22;27262;-35.248;149.138;2023-08-31T01:14:16;19.90;62.20
41533;DHT22;27262;-35.248;149.138;2023-08-31T01:16:49;19.90;62.40
41533;DHT22;27262;-35.248;149.138;2023-08-31T01:19:31;19.90;62.30
41533;DHT22;27262;-35.248;149.138;2023-08-31T01:22:07;19.90;62.50
41533;DHT22;27262;-35.248;149.138;2023-08-31T01:24:39;20.00;62.50
41533;DHT22;27262;-35.248;149.138;2023-08-31T01:27:11;19.90;62.30
41533;DHT22;27262;-35.248;149.138;2023-08-31T01:29:42;20.00;62.50
41533;DHT22;27262;-35.248;149.138;2023-08-31T01:32:12;20.00;62.30
41533;DHT22;27262;-35.248;149.138;2023-08-31T01:34:43;20.00;62.50
41533;DHT22;27262;-35.248;149.138;2023-08-31T01:37:17;20.00;62.30
41533;DHT22;27262;-35.248;149.138;2023-08-31T01:39:56;20.00;62.30
41533;DHT22;27262;-35.248;149.138;2023-08-31T01:42:31;20.10;62.30
41533;DHT22;27262;-35.248;149.138;2023-08-31T01:45:01;20.10;62.40
41533;DHT22;27262;-35.248;149.138;2023-08-31T01:47:33;20.10;62.50
41533;DHT22;27262;-35.248;149.138;2023-08-31T01:50:04;20.10;62.30
41533;DHT22;27262;-35.248;149.138;2023-08-31T01:52:35;20.10;62.30
41533;DHT22;27262;-35.248;149.138;2023-08-31T01:55:06;20.10;62.20
41533;DHT22;27262;-35.248;149.138;2023-08-31T01:57:37;20.10;62.20
41533;DHT22;27262;-35.248;149.138;2023-08-31T02:00:09;20.20;62.20
41533;DHT22;27262;-35.248;149.138;2023-08-31T02:02:40;20.20;62.30
41533;DHT22;27262;-35.248;149.138;2023-08-31T02:05:12;20.20;62.20
41533;DHT22;27262;-35.248;149.138;2023-08-31T02:07:42;20.20;62.10
41533;DHT22;27262;-35.248;149.138;2023-08-31T02:10:14;20.30;62.20
41533;DHT22;27262;-35.248;149.138;2023-08-31T02:12:44;20.30;62.20
41533;DHT22;27262;-35.248;149.138;2023-08-31T02:15:15;20.30;62.10
41533;DHT22;27262;-35.248;149.138;2023-08-31T02:17:46;20.30;62.10
41533;DHT22;27262;-35.248;149.138;2023-08-31T02:20:17;20.30;62.10
41533;DHT22;27262;-35.248;149.138;2023-08-31T02:22:50;20.30;62.10
41533;DHT22;27262;-35.248;149.138;2023-08-31T02:25:20;20.30;62.20
41533;DHT22;27262;-35.248;149.138;2023-08-31T02:27:51;20.40;62.10
41533;DHT22;27262;-35.248;149.138;2023-08-31T02:30:22;20.40;62.10
41533;DHT22;27262;-35.248;149.138;2023-08-31T02:32:52;20.40;62.10
41533;DHT22;27262;-35.248;149.138;2023-08-31T02:35:24;20.40;62.10
41533;DHT22;27262;-35.248;149.138;2023-08-31T02:37:54;20.40;62.20
41533;DHT22;27262;-35.248;149.138;2023-08-31T02:40:25;20.40;62.20
41533;DHT22;27262;-35.248;149.138;2023-08-31T02:42:55;20.40;62.10
41533;DHT22;27262;-35.248;149.138;2023-08-31T02:45:26;20.40;62.10
41533;DHT22;27262;-35.248;149.138;2023-08-31T02:47:56;20.40;61.90
41533;DHT22;27262;-35.248;149.138;2023-08-31T02:50:27;20.40;62.00
41533;DHT22;27262;-35.248;149.138;2023-08-31T02:53:00;20.50;62.00
41533;DHT22;27262;-35.248;149.138;2023-08-31T02:55:33;20.50;62.00
41533;DHT22;27262;-35.248;149.138;2023-08-31T02:58:03;20.50;61.90
41533;DHT22;27262;-35.248;149.138;2023-08-31T03:00:34;20.50;62.00
41533;DHT22;27262;-35.248;149.138;2023-08-31T03:03:06;20.50;61.90
41533;DHT22;27262;-35.248;149.138;2023-08-31T03:05:37;20.50;61.90
41533;DHT22;27262;-35.248;149.138;2023-08-31T03:08:07;20.50;61.90
41533;DHT22;27262;-35.248;149.138;2023-08-31T03:10:38;20.50;61.90
41533;DHT22;27262;-35.248;149.138;2023-08-31T03:13:09;20.60;62.00
41533;DHT22;27262;-35.248;149.138;2023-08-31T03:15:40;20.60;62.00
41533;DHT22;27262;-35.248;149.138;2023-08-31T03:18:10;20.60;61.90
41533;DHT22;27262;-35.248;149.138;2023-08-31T03:20:41;20.60;62.00
41533;DHT22;27262;-35.248;149.138;2023-08-31T03:23:11;20.70;62.10
41533;DHT22;27262;-35.248;149.138;2023-08-31T03:25:42;20.70;62.00
41533;DHT22;27262;-35.248;149.138;2023-08-31T03:28:12;20.70;62.10
41533;DHT22;27262;-35.248;149.138;2023-08-31T03:30:43;20.70;62.10
41533;DHT22;27262;-35.248;149.138;2023-08-31T03:33:14;20.70;62.00
41533;DHT22;27262;-35.248;149.138;2023-08-31T03:35:45;20.70;62.10
41533;DHT22;27262;-35.248;149.138;2023-08-31T03:38:15;20.70;62.10
41533;DHT22;27262;-35.248;149.138;2023-08-31T03:40:57;20.80;62.10
41533;DHT22;27262;-35.248;149.138;2023-08-31T03:43:28;20.80;62.00
41533;DHT22;27262;-35.248;149.138;2023-08-31T03:45:58;20.80;62.00
41533;DHT22;27262;-35.248;149.138;2023-08-31T03:48:29;20.80;62.10
41533;DHT22;27262;-35.248;149.138;2023-08-31T03:50:59;20.80;62.00
41533;DHT22;27262;-35.248;149.138;2023-08-31T03:53:30;20.80;62.00
41533;DHT22;27262;-35.248;149.138;2023-08-31T03:56:00;20.80;61.90
41533;DHT22;27262;-35.248;149.138;2023-08-31T03:58:33;20.80;61.90
41533;DHT22;27262;-35.248;149.138;2023-08-31T04:01:03;20.90;62.00
41533;DHT22;27262;-35.248;149.138;2023-08-31T04:03:34;20.90;62.00
41533;DHT22;27262;-35.248;149.138;2023-08-31T04:06:05;20.90;62.00
41533;DHT22;27262;-35.248;149.138;2023-08-31T04:08:36;20.90;62.00
41533;DHT22;27262;-35.248;149.138;2023-08-31T04:11:06;20.90;62.00
41533;DHT22;27262;-35.248;149.138;2023-08-31T04:13:36;20.90;62.00
41533;DHT22;27262;-35.248;149.138;2023-08-31T04:16:07;20.90;62.00
41533;DHT22;27262;-35.248;149.138;2023-08-31T04:18:37;20.90;62.10
41533;DHT22;27262;-35.248;149.138;2023-08-31T04:21:08;20.90;62.00
41533;DHT22;27262;-35.248;149.138;2023-08-31T04:23:39;20.90;62.00
41533;DHT22;27262;-35.248;149.138;2023-08-31T04:26:13;20.90;62.00
41533;DHT22;27262;-35.248;149.138;2023-08-31T04:28:44;21.00;62.00
41533;DHT22;27262;-35.248;149.138;2023-08-31T04:31:14;21.00;62.00
41533;DHT22;27262;-35.248;149.138;2023-08-31T04:33:46;21.00;62.10
41533;DHT22;27262;-35.248;149.138;2023-08-31T04:36:17;21.00;61.90
41533;DHT22;27262;-35.248;149.138;2023-08-31T04:38:49;21.00;61.90
41533;DHT22;27262;-35.248;149.138;2023-08-31T04:41:20;21.00;61.80
41533;DHT22;27262;-35.248;149.138;2023-08-31T04:43:50;21.10;61.90
41533;DHT22;27262;-35.248;149.138;2023-08-31T04:46:21;21.10;61.90
41533;DHT22;27262;-35.248;149.138;2023-08-31T04:48:51;21.10;61.80
41533;DHT22;27262;-35.248;149.138;2023-08-31T04:51:37;21.10;61.80
41533;DHT22;27262;-35.248;149.138;2023-08-31T04:54:08;21.10;61.70
41533;DHT22;27262;-35.248;149.138;2023-08-31T04:56:42;21.10;61.80
41533;DHT22;27262;-35.248;149.138;2023-08-31T04:59:12;21.10;61.80
41533;DHT22;27262;-35.248;149.138;2023-08-31T05:01:43;21.10;61.70
41533;DHT22;27262;-35.248;149.138;2023-08-31T05:04:13;21.10;61.70
41533;DHT22;27262;-35.248;149.138;2023-08-31T05:06:44;21.10;61.70
41533;DHT22;27262;-35.248;149.138;2023-08-31T05:09:14;21.10;61.70
41533;DHT22;27262;-35.248;149.138;2023-08-31T05:11:44;21.10;61.80
41533;DHT22;27262;-35.248;149.138;2023-08-31T05:14:15;21.20;61.90
41533;DHT22;27262;-35.248;149.138;2023-08-31T05:16:45;21.20;61.80
41533;DHT22;27262;-35.248;149.138;2023-08-31T05:19:16;21.20;61.70
41533;DHT22;27262;-35.248;149.138;2023-08-31T05:21:47;21.20;62.10
41533;DHT22;27262;-35.248;149.138;2023-08-31T05:24:17;21.20;61.80
41533;DHT22;27262;-35.248;149.138;2023-08-31T05:26:48;21.20;61.80
41533;DHT22;27262;-35.248;149.138;2023-08-31T05:29:19;21.20;61.70
41533;DHT22;27262;-35.248;149.138;2023-08-31T05:31:51;21.20;61.90
41533;DHT22;27262;-35.248;149.138;2023-08-31T05:34:25;21.20;61.80
41533;DHT22;27262;-35.248;149.138;2023-08-31T05:36:56;21.20;61.70
41533;DHT22;27262;-35.248;149.138;2023-08-31T05:39:26;21.20;61.80
41533;DHT22;27262;-35.248;149.138;2023-08-31T05:41:56;21.30;62.00
41533;DHT22;27262;-35.248;149.138;2023-08-31T05:44:27;21.30;61.90
41533;DHT22;27262;-35.248;149.138;2023-08-31T05:46:58;21.30;61.80
41533;DHT22;27262;-35.248;149.138;2023-08-31T05:49:28;21.20;61.80
41533;DHT22;27262;-35.248;149.138;2023-08-31T05:51:59;21.30;62.00
41533;DHT22;27262;-35.248;149.138;2023-08-31T05:54:29;21.30;61.80
41533;DHT22;27262;-35.248;149.138;2023-08-31T05:57:03;21.30;61.70
41533;DHT22;27262;-35.248;149.138;2023-08-31T05:59:35;21.30;61.90
41533;DHT22;27262;-35.248;149.138;2023-08-31T06:02:06;21.30;61.90
41533;DHT22;27262;-35.248;149.138;2023-08-31T06:04:38;21.30;61.70
41533;DHT22;27262;-35.248;149.138;2023-08-31T06:07:08;21.30;61.70
41533;DHT22;27262;-35.248;149.138;2023-08-31T06:09:38;21.30;61.90
41533;DHT22;27262;-35.248;149.138;2023-08-31T06:12:09;21.30;61.80
41533;DHT22;27262;-35.248;149.138;2023-08-31T06:14:39;21.30;61.70
41533;DHT22;27262;-35.248;149.138;2023-08-31T06:17:09;21.30;61.60
41533;DHT22;27262;-35.248;149.138;2023-08-31T06:19:42;21.30;61.70
41533;DHT22;27262;-35.248;149.138;2023-08-31T06:22:13;21.30;61.60
41533;DHT22;27262;-35.248;149.138;2023-08-31T06:24:43;21.30;61.60
41533;DHT22;27262;-35.248;149.138;2023-08-31T06:27:15;21.30;61.50
41533;DHT22;27262;-35.248;149.138;2023-08-31T06:29:47;21.30;61.60
41533;DHT22;27262;-35.248;149.138;2023-08-31T06:32:18;21.30;61.50
41533;DHT22;27262;-35.248;149.138;2023-08-31T06:34:48;21.30;62.30
41533;DHT22;27262;-35.248;149.138;2023-08-31T06:37:18;21.20;61.50
41533;DHT22;27262;-35.248;149.138;2023-08-31T06:39:50;21.30;61.70
41533;DHT22;27262;-35.248;149.138;2023-08-31T06:42:20;21.30;61.50
41533;DHT22;27262;-35.248;149.138;2023-08-31T06:44:51;21.30;61.60
41533;DHT22;27262;-35.248;149.138;2023-08-31T06:47:22;21.30;61.60
41533;DHT22;27262;-35.248;149.138;2023-08-31T06:49:53;21.30;61.60
41533;DHT22;27262;-35.248;149.138;2023-08-31T06:52:23;21.30;61.70
41533;DHT22;27262;-35.248;149.138;2023-08-31T06:54:59;21.30;61.60
41533;DHT22;27262;-35.248;149.138;2023-08-31T06:57:30;21.30;61.50
41533;DHT22;27262;-35.248;149.138;2023-08-31T07:00:00;21.40;61.60
41533;DHT22;27262;-35.248;149.138;2023-08-31T07:02:33;21.40;61.50
41533;DHT22;27262;-35.248;149.138;2023-08-31T07:05:04;21.40;61.50
41533;DHT22;27262;-35.248;149.138;2023-08-31T07:07:36;21.40;61.40
41533;DHT22;27262;-35.248;149.138;2023-08-31T07:10:07;21.40;61.40
41533;DHT22;27262;-35.248;149.138;2023-08-31T07:12:38;21.40;61.40
41533;DHT22;27262;-35.248;149.138;2023-08-31T07:15:08;21.30;61.30
41533;DHT22;27262;-35.248;149.138;2023-08-31T07:17:39;21.30;61.20
41533;DHT22;27262;-35.248;149.138;2023-08-31T07:20:09;21.40;61.20
41533;DHT22;27262;-35.248;149.138;2023-08-31T07:22:40;21.40;61.40
41533;DHT22;27262;-35.248;149.138;2023-08-31T07:25:10;21.40;61.40
41533;DHT22;27262;-35.248;149.138;2023-08-31T07:27:41;21.30;61.30
41533;DHT22;27262;-35.248;149.138;2023-08-31T07:30:11;21.30;61.30
41533;DHT22;27262;-35.248;149.138;2023-08-31T07:32:42;21.30;61.40
41533;DHT22;27262;-35.248;149.138;2023-08-31T07:35:12;21.30;61.40
41533;DHT22;27262;-35.248;149.138;2023-08-31T07:37:42;21.30;61.40
41533;DHT22;27262;-35.248;149.138;2023-08-31T07:40:13;21.20;61.30
41533;DHT22;27262;-35.248;149.138;2023-08-31T07:42:43;21.20;61.30
41533;DHT22;27262;-35.248;149.138;2023-08-31T07:45:14;21.30;61.30
41533;DHT22;27262;-35.248;149.138;2023-08-31T07:47:44;21.20;61.30
41533;DHT22;27262;-35.248;149.138;2023-08-31T07:50:15;21.20;61.30
41533;DHT22;27262;-35.248;149.138;2023-08-31T07:52:45;21.20;61.30
41533;DHT22;27262;-35.248;149.138;2023-08-31T07:55:16;21.20;61.40
41533;DHT22;27262;-35.248;149.138;2023-08-31T07:57:47;21.20;61.30
41533;DHT22;27262;-35.248;149.138;2023-08-31T08:00:18;21.20;61.30
41533;DHT22;27262;-35.248;149.138;2023-08-31T08:02:48;21.20;61.30
41533;DHT22;27262;-35.248;149.138;2023-08-31T08:05:19;21.20;61.40
41533;DHT22;27262;-35.248;149.138;2023-08-31T08:07:49;21.10;61.30
41533;DHT22;27262;-35.248;149.138;2023-08-31T08:10:20;21.10;61.30
41533;DHT22;27262;-35.248;149.138;2023-08-31T08:12:50;21.10;61.30
41533;DHT22;27262;-35.248;149.138;2023-08-31T08:15:20;21.10;61.30
41533;DHT22;27262;-35.248;149.138;2023-08-31T08:17:51;21.10;61.30
41533;DHT22;27262;-35.248;149.138;2023-08-31T08:20:23;21.10;61.30
41533;DHT22;27262;-35.248;149.138;2023-08-31T08:22:54;21.10;61.10
41533;DHT22;27262;-35.248;149.138;2023-08-31T08:25:25;21.10;61.30
41533;DHT22;27262;-35.248;149.138;2023-08-31T08:27:55;21.10;61.10
41533;DHT22;27262;-35.248;149.138;2023-08-31T08:30:26;21.00;61.10
41533;DHT22;27262;-35.248;149.138;2023-08-31T08:32:56;21.00;61.00
41533;DHT22;27262;-35.248;149.138;2023-08-31T08:35:27;21.00;61.00
41533;DHT22;27262;-35.248;149.138;2023-08-31T08:37:57;21.00;61.00
41533;DHT22;27262;-35.248;149.138;2023-08-31T08:40:31;21.00;61.00
41533;DHT22;27262;-35.248;149.138;2023-08-31T08:43:05;21.00;61.10
41533;DHT22;27262;-35.248;149.138;2023-08-31T08:45:38;21.00;60.90
41533;DHT22;27262;-35.248;149.138;2023-08-31T08:48:11;21.00;60.90
41533;DHT22;27262;-35.248;149.138;2023-08-31T08:50:42;21.00;61.00
41533;DHT22;27262;-35.248;149.138;2023-08-31T08:53:13;21.00;61.00
41533;DHT22;27262;-35.248;149.138;2023-08-31T08:55:44;21.00;61.10
41533;DHT22;27262;-35.248;149.138;2023-08-31T08:58:14;20.90;61.00
41533;DHT22;27262;-35.248;149.138;2023-08-31T09:00:46;21.00;61.10
41533;DHT22;27262;-35.248;149.138;2023-08-31T09:03:17;21.00;61.00
41533;DHT22;27262;-35.248;149.138;2023-08-31T09:05:48;21.00;61.50
41533;DHT22;27262;-35.248;149.138;2023-08-31T09:08:26;21.00;61.00
41533;DHT22;27262;-35.248;149.138;2023-08-31T09:10:57;21.00;61.10
41533;DHT22;27262;-35.248;149.138;2023-08-31T09:13:29;21.00;61.10
41533;DHT22;27262;-35.248;149.138;2023-08-31T09:15:59;21.00;61.30
41533;DHT22;27262;-35.248;149.138;2023-08-31T09:18:32;21.00;61.30
41533;DHT22;27262;-35.248;149.138;2023-08-31T09:21:03;21.00;61.40
41533;DHT22;27262;-35.248;149.138;2023-08-31T09:23:33;21.00;61.30
41533;DHT22;27262;-35.248;149.138;2023-08-31T09:26:05;21.00;61.40
41533;DHT22;27262;-35.248;149.138;2023-08-31T09:28:41;21.10;61.40
41533;DHT22;27262;-35.248;149.138;2023-08-31T09:31:11;21.00;61.30
41533;DHT22;27262;-35.248;149.138;2023-08-31T09:33:51;21.00;61.40
41533;DHT22;27262;-35.248;149.138;2023-08-31T09:36:21;21.10;61.20
41533;DHT22;27262;-35.248;149.138;2023-08-31T09:38:52;21.00;61.40
41533;DHT22;27262;-35.248;149.138;2023-08-31T09:41:26;21.00;61.30
41533;DHT22;27262;-35.248;149.138;2023-08-31T09:44:04;21.00;61.40
41533;DHT22;27262;-35.248;149.138;2023-08-31T09:46:45;21.10;61.40
41533;DHT22;27262;-35.248;149.138;2023-08-31T09:49:16;21.10;61.30
41533;DHT22;27262;-35.248;149.138;2023-08-31T09:51:49;21.10;61.40
41533;DHT22;27262;-35.248;149.138;2023-08-31T09:54:20;21.10;61.30
41533;DHT22;27262;-35.248;149.138;2023-08-31T09:56:56;21.00;61.30
41533;DHT22;27262;-35.248;149.138;2023-08-31T09:59:31;21.10;61.40
41533;DHT22;27262;-35.248;149.138;2023-08-31T10:02:03;21.10;61.30
41533;DHT22;27262;-35.248;149.138;2023-08-31T10:04:35;21.10;61.40
41533;DHT22;27262;-35.248;149.138;2023-08-31T10:07:06;21.10;61.30
41533;DHT22;27262;-35.248;149.138;2023-08-31T10:09:39;21.10;61.40
41533;DHT22;27262;-35.248;149.138;2023-08-31T10:12:10;21.10;61.30
41533;DHT22;27262;-35.248;149.138;2023-08-31T10:14:41;21.10;61.40
41533;DHT22;27262;-35.248;149.138;2023-08-31T10:17:12;21.00;61.50
41533;DHT22;27262;-35.248;149.138;2023-08-31T10:19:43;21.00;61.30
41533;DHT22;27262;-35.248;149.138;2023-08-31T10:22:13;21.00;61.40
41533;DHT22;27262;-35.248;149.138;2023-08-31T10:25:04;21.00;61.40
41533;DHT22;27262;-35.248;149.138;2023-08-31T10:27:42;21.00;61.30
41533;DHT22;27262;-35.248;149.138;2023-08-31T10:30:25;21.00;61.40
41533;DHT22;27262;-35.248;149.138;2023-08-31T10:35:55;21.00;61.40
41533;DHT22;27262;-35.248;149.138;2023-08-31T10:38:32;20.90;61.20
41533;DHT22;27262;-35.248;149.138;2023-08-31T10:43:56;20.90;61.40
41533;DHT22;27262;-35.248;149.138;2023-08-31T10:46:34;20.90;61.20
41533;DHT22;27262;-35.248;149.138;2023-08-31T10:51:45;20.80;61.20
41533;DHT22;27262;-35.248;149.138;2023-08-31T10:59:53;20.80;61.40
41533;DHT22;27262;-35.248;149.138;2023-08-31T11:02:58;20.80;61.40
41533;DHT22;27262;-35.248;149.138;2023-08-31T11:05:29;20.80;61.50
41533;DHT22;27262;-35.248;149.138;2023-08-31T11:07:59;20.80;61.50
41533;DHT22;27262;-35.248;149.138;2023-08-31T11:10:31;20.70;61.40
41533;DHT22;27262;-35.248;149.138;2023-08-31T11:13:01;20.70;61.40
41533;DHT22;27262;-35.248;149.138;2023-08-31T11:15:32;20.80;61.40
41533;DHT22;27262;-35.248;149.138;2023-08-31T11:18:03;20.70;61.50
41533;DHT22;27262;-35.248;149.138;2023-08-31T11:20:35;20.70;61.40
41533;DHT22;27262;-35.248;149.138;2023-08-31T11:23:06;20.80;61.40
41533;DHT22;27262;-35.248;149.138;2023-08-31T11:25:37;20.70;61.40
41533;DHT22;27262;-35.248;149.138;2023-08-31T11:28:07;20.70;61.40
41533;DHT22;27262;-35.248;149.138;2023-08-31T11:30:38;20.70;61.40
41533;DHT22;27262;-35.248;149.138;2023-08-31T11:33:10;20.70;61.40
41533;DHT22;27262;-35.248;149.138;2023-08-31T11:35:44;20.70;61.40
41533;DHT22;27262;-35.248;149.138;2023-08-31T11:38:15;20.70;61.40
41533;DHT22;27262;-35.248;149.138;2023-08-31T11:40:59;20.60;61.40
41533;DHT22;27262;-35.248;149.138;2023-08-31T11:43:31;20.60;61.40
41533;DHT22;27262;-35.248;149.138;2023-08-31T11:46:02;20.60;61.40
41533;DHT22;27262;-35.248;149.138;2023-08-31T11:48:34;20.60;61.40
41533;DHT22;27262;-35.248;149.138;2023-08-31T11:51:05;20.60;61.50
41533;DHT22;27262;-35.248;149.138;2023-08-31T11:53:43;20.60;62.20
41533;DHT22;27262;-35.248;149.138;2023-08-31T11:56:14;20.60;61.40
41533;DHT22;27262;-35.248;149.138;2023-08-31T11:58:45;20.60;61.40
41533;DHT22;27262;-35.248;149.138;2023-08-31T12:01:31;20.60;61.50
41533;DHT22;27262;-35.248;149.138;2023-08-31T12:04:02;20.60;61.60
41533;DHT22;27262;-35.248;149.138;2023-08-31T12:06:40;20.50;61.50
41533;DHT22;27262;-35.248;149.138;2023-08-31T12:09:11;20.60;61.60
41533;DHT22;27262;-35.248;149.138;2023-08-31T12:11:41;20.50;61.50
41533;DHT22;27262;-35.248;149.138;2023-08-31T12:14:23;20.50;61.50
41533;DHT22;27262;-35.248;149.138;2023-08-31T12:17:01;20.60;61.50
41533;DHT22;27262;-35.248;149.138;2023-08-31T12:19:37;20.50;61.60
41533;DHT22;27262;-35.248;149.138;2023-08-31T12:22:08;20.50;61.50
41533;DHT22;27262;-35.248;149.138;2023-08-31T12:24:42;20.50;61.60
41533;DHT22;27262;-35.248;149.138;2023-08-31T12:27:13;20.50;61.50
41533;DHT22;27262;-35.248;149.138;2023-08-31T12:29:43;20.50;61.50
41533;DHT22;27262;-35.248;149.138;2023-08-31T12:32:16;20.50;61.50
41533;DHT22;27262;-35.248;149.138;2023-08-31T12:34:49;20.50;61.40
41533;DHT22;27262;-35.248;149.138;2023-08-31T12:37:20;20.50;61.50
41533;DHT22;27262;-35.248;149.138;2023-08-31T12:39:50;20.40;61.50
41533;DHT22;27262;-35.248;149.138;2023-08-31T12:42:23;20.40;61.40
41533;DHT22;27262;-35.248;149.138;2023-08-31T12:44:54;20.40;61.40
41533;DHT22;27262;-35.248;149.138;2023-08-31T12:47:24;20.40;61.40
41533;DHT22;27262;-35.248;149.138;2023-08-31T12:49:55;20.30;61.50
41533;DHT22;27262;-35.248;149.138;2023-08-31T12:52:26;20.40;61.50
41533;DHT22;27262;-35.248;149.138;2023-08-31T12:54:56;20.30;61.60
41533;DHT22;27262;-35.248;149.138;2023-08-31T12:57:27;20.30;61.60
41533;DHT22;27262;-35.248;149.138;2023-08-31T12:59:57;20.30;61.70
41533;DHT22;27262;-35.248;149.138;2023-08-31T13:02:27;20.30;61.70
41533;DHT22;27262;-35.248;149.138;2023-08-31T13:04:58;20.20;61.70
41533;DHT22;27262;-35.248;149.138;2023-08-31T13:07:28;20.20;61.70
41533;DHT22;27262;-35.248;149.138;2023-08-31T13:10:01;20.20;61.70
41533;DHT22;27262;-35.248;149.138;2023-08-31T13:12:34;20.20;61.80
41533;DHT22;27262;-35.248;149.138;2023-08-31T13:15:04;20.20;61.80
41533;DHT22;27262;-35.248;149.138;2023-08-31T13:17:37;20.10;61.80
41533;DHT22;27262;-35.248;149.138;2023-08-31T13:20:08;20.10;61.80
41533;DHT22;27262;-35.248;149.138;2023-08-31T13:22:38;20.10;61.80
41533;DHT22;27262;-35.248;149.138;2023-08-31T13:25:09;20.10;61.90
41533;DHT22;27262;-35.248;149.138;2023-08-31T13:27:40;20.10;61.90
41533;DHT22;27262;-35.248;149.138;2023-08-31T13:30:11;20.10;61.90
41533;DHT22;27262;-35.248;149.138;2023-08-31T13:32:42;20.00;61.90
41533;DHT22;27262;-35.248;149.138;2023-08-31T13:35:13;20.00;61.90
41533;DHT22;27262;-35.248;149.138;2023-08-31T13:37:43;20.00;62.00
41533;DHT22;27262;-35.248;149.138;2023-08-31T13:40:14;20.00;62.00
41533;DHT22;27262;-35.248;149.138;2023-08-31T13:43:00;20.00;62.00
41533;DHT22;27262;-35.248;149.138;2023-08-31T13:45:33;20.00;61.90
41533;DHT22;27262;-35.248;149.138;2023-08-31T13:48:04;19.90;62.00
41533;DHT22;27262;-35.248;149.138;2023-08-31T13:50:34;19.90;62.10
41533;DHT22;27262;-35.248;149.138;2023-08-31T13:53:05;19.90;62.10
41533;DHT22;27262;-35.248;149.138;2023-08-31T13:55:36;19.90;62.10
41533;DHT22;27262;-35.248;149.138;2023-08-31T13:58:07;19.80;62.10
41533;DHT22;27262;-35.248;149.138;2023-08-31T14:00:39;19.80;62.00
41533;DHT22;27262;-35.248;149.138;2023-08-31T14:03:11;19.80;62.10
41533;DHT22;27262;-35.248;149.138;2023-08-31T14:05:41;19.80;62.10
41533;DHT22;27262;-35.248;149.138;2023-08-31T14:08:12;19.80;62.10
41533;DHT22;27262;-35.248;149.138;2023-08-31T14:10:42;19.70;62.00
41533;DHT22;27262;-35.248;149.138;2023-08-31T14:13:13;19.70;62.10
41533;DHT22;27262;-35.248;149.138;2023-08-31T14:15:46;19.70;62.10
41533;DHT22;27262;-35.248;149.138;2023-08-31T14:18:17;19.70;62.10
41533;DHT22;27262;-35.248;149.138;2023-08-31T14:20:47;19.70;62.10
41533;DHT22;27262;-35.248;149.138;2023-08-31T14:23:17;19.60;62.10
41533;DHT22;27262;-35.248;149.138;2023-08-31T14:25:48;19.60;62.10
41533;DHT22;27262;-35.248;149.138;2023-08-31T14:28:18;19.60;62.10
41533;DHT22;27262;-35.248;149.138;2023-08-31T14:30:48;19.60;62.20
41533;DHT22;27262;-35.248;149.138;2023-08-31T14:33:19;19.60;62.20
41533;DHT22;27262;-35.248;149.138;2023-08-31T14:35:52;19.50;62.10
41533;DHT22;27262;-35.248;149.138;2023-08-31T14:38:26;19.50;62.10
41533;DHT22;27262;-35.248;149.138;2023-08-31T14:40:57;19.50;62.10
41533;DHT22;27262;-35.248;149.138;2023-08-31T14:43:28;19.50;62.20
41533;DHT22;27262;-35.248;149.138;2023-08-31T14:45:59;19.50;62.20
41533;DHT22;27262;-35.248;149.138;2023-08-31T14:48:30;19.50;62.20
41533;DHT22;27262;-35.248;149.138;2023-08-31T14:51:01;19.50;62.10
41533;DHT22;27262;-35.248;149.138;2023-08-31T14:53:32;19.40;62.10
41533;DHT22;27262;-35.248;149.138;2023-08-31T14:56:03;19.40;62.00
41533;DHT22;27262;-35.248;149.138;2023-08-31T14:58:33;19.40;61.90
41533;DHT22;27262;-35.248;149.138;2023-08-31T15:01:04;19.40;61.90
41533;DHT22;27262;-35.248;149.138;2023-08-31T15:03:34;19.30;61.60
41533;DHT22;27262;-35.248;149.138;2023-08-31T15:06:06;19.30;61.50
41533;DHT22;27262;-35.248;149.138;2023-08-31T15:08:38;19.30;61.40
41533;DHT22;27262;-35.248;149.138;2023-08-31T15:11:10;19.30;61.30
41533;DHT22;27262;-35.248;149.138;2023-08-31T15:13:43;19.20;61.20
41533;DHT22;27262;-35.248;149.138;2023-08-31T15:16:13;19.20;61.20
41533;DHT22;27262;-35.248;149.138;2023-08-31T15:18:44;19.20;61.20
41533;DHT22;27262;-35.248;149.138;2023-08-31T15:21:16;19.20;61.10
41533;DHT22;27262;-35.248;149.138;2023-08-31T15:23:47;19.20;61.10
41533;DHT22;27262;-35.248;149.138;2023-08-31T15:26:17;19.20;61.10
41533;DHT22;27262;-35.248;149.138;2023-08-31T15:28:49;19.20;61.10
41533;DHT22;27262;-35.248;149.138;2023-08-31T15:31:20;19.10;60.90
41533;DHT22;27262;-35.248;149.138;2023-08-31T15:33:50;19.10;60.90
41533;DHT22;27262;-35.248;149.138;2023-08-31T15:36:21;19.10;60.90